Terminal Aerodrome Forecast
Issued by NWS Northern Indiana

Home | Current Version | Previous Version | Text Only | Print | Product List | Glossary Off
Versions: 1 2 3 4 5 6 7 8 9 10 11 12 13 14 15 16

000
FTUS43 KIWX 300500 CCA
TAFFWA
TAF COR
KFWA 300538Z 3006/3106 26004KT 6SM BR SCT070
      TEMPO 3008/3012 3SM BR
     FM301600 29010KT P6SM VCSH BKN045
     FM302300 28005KT P6SM SCT050=

USA.gov is the U.S. government's official web portal to all federal, state and local government web resources and services.